McDonald, New Mexico
Current Conditions -  °F | °C
As of 1:35 AM on Friday 19 Dec 2014 (Local Time) from KHOB Reporting Station
Clear Clear  
Wind Chill: 37°   Ceiling: Unl
Heat Index: 37°   Visibility: 10mi
Dew Point: 37°   Wind: 3mph
Humidity: 100%   Direction: 80°E
Pressure: 30.11"   Gusts: NA
Location:  33.14°N, 103.32°W
Report Text: KHOB 190835Z AUTO 08003KT 10SM CLR 03/03 A3011 RMK AO2
Loading
Personal Weather Stations






























Interactive Weather Map New forecast layout! Learn more

10-Day Weather Forecast

Advertisements
Track Severe Weather on mobile